Latest Weather Observations for Cloncurry

IDQ60801

Issued at 10:02 am EST Saturday 29 August 2015 (issued every 30 minutes, with the page automatically refreshed every 10 minutes)

About weather observations | Map of weather stations | Latest weather observations for QLD | Other Formats
Station Details ID: 029141 Name: CLONCURRY AIRPORT Lat: -20.67 Lon: 140.50 Height: 186.0 m
Data from the previous 72 hours. | See also: Recent months at Cloncurry
Date/Time
EST
Temp
°C
App
Temp
°C
Dew
Point
Rel
Hum
%
Delta-T
°C
Wind Press
QNH
hPa
Press
MSL
hPa
Rain
since 9 am
mm
Dir
 
Spd
km/h
Gust
km/h
Spd
kts
Gust
kts
29/10:00am 24.7 18.6 0.3 20 11.3 SE 22 28 12 15 1020.7 1020.1 0.0
29/09:30am 24.6 18.9 0.8 21 11.1 SSE 20 26 11 14 1020.9 1020.3 0.0
29/09:00am 22.9 16.8 0.1 22 10.4 SE 22 28 12 15 1020.5 1019.9 0.2
29/08:30am 21.3 16.2 0.5 25 9.5 SSE 17 20 9 11 1020.5 1019.9 0.2
29/08:00am 20.0 16.0 0.5 27 8.8 S 11 15 6 8 1020.4 1019.8 0.2
29/07:30am 18.6 15.1 1.2 31 7.9 S 9 11 5 6 1020.2 1019.6 0.2
29/07:00am 17.8 14.2 0.9 32 7.5 S 9 13 5 7 1019.9 1019.3 0.2
29/06:30am 17.1 13.1 0.3 32 7.4 S 11 13 6 7 1019.4 1018.8 0.2
29/06:00am 17.9 13.8 0.1 30 7.8 SSE 11 11 6 6 1018.9 1018.4 0.2
29/05:30am 19.2 16.0 0.8 29 8.3 SSE 7 9 4 5 1019.0 1018.5 0.2
29/05:00am 19.7 16.1 0.7 28 8.6 S 9 9 5 5 1018.8 1018.3 0.2
29/04:30am 20.3 16.4 1.2 28 8.7 SSE 11 15 6 8 1018.6 1018.1 0.2
29/04:00am 19.9 16.4 1.4 29 8.5 S 9 11 5 6 1018.9 1018.4 0.2
29/03:30am 19.9 16.0 1.4 29 8.5 S 11 13 6 7 1018.7 1018.2 0.2
29/03:00am 20.1 16.3 1.5 29 8.5 SSW 11 13 6 7 1018.8 1018.3 0.2
29/02:30am 19.6 15.2 0.6 28 8.5 S 13 13 7 7 1018.8 1018.3 0.2
29/02:00am 20.8 16.5 1.1 27 9.0 SSE 13 17 7 9 1018.7 1018.2 0.2
29/01:30am 21.2 17.7 1.0 26 9.3 SSE 9 13 5 7 1019.4 1018.8 0.2
29/01:00am 22.3 18.0 1.3 25 9.8 SSE 13 20 7 11 1019.6 1019.0 0.2
29/12:30am 22.4 17.9 2.0 26 9.6 S 15 19 8 10 1020.0 1019.4 0.2
29/12:00am 22.9 16.6 1.8 25 9.9 S 24 30 13 16 1019.8 1019.2 0.2
 
Date/Time
EST
Temp
°C
App
Temp
°C
Dew
Point
Rel
Hum
%
Delta-T
°C
Wind Press
QNH
hPa
Press
MSL
hPa
Rain
since 9 am
mm
Dir
 
Spd
km/h
Gust
km/h
Spd
kts
Gust
kts
28/11:30pm 23.2 17.6 3.2 27 9.7 SSW 22 30 12 16 1020.1 1019.5 0.2
28/11:00pm 23.0 19.5 5.4 32 8.9 SSW 13 15 7 8 1019.9 1019.3 0.2
28/10:30pm 23.8 19.6 5.7 31 9.3 SSW 17 20 9 11 1020.0 1019.4 0.2
28/10:00pm 24.0 20.7 6.3 32 9.1 SSW 13 19 7 10 1020.2 1019.6 0.2
28/09:30pm 23.4 20.4 6.2 33 8.9 S 11 13 6 7 1019.6 1019.0 0.2
28/09:00pm 23.5 20.9 6.3 33 8.9 S 9 11 5 6 1019.5 1018.9 0.2
28/08:30pm 24.5 21.6 6.7 32 9.3 S 11 11 6 6 1018.9 1018.4 0.2
28/08:00pm 25.1 21.5 6.8 31 9.6 S 15 20 8 11 1018.4 1017.9 0.2
28/07:30pm 25.6 22.1 7.2 31 9.8 S 15 20 8 11 1018.1 1017.6 0.2
28/07:00pm 25.9 21.6 7.0 30 10.0 SSW 19 24 10 13 1017.6 1017.0 0.2
28/06:30pm 26.5 22.0 7.0 29 10.4 SSW 20 26 11 14 1017.3 1016.7 0.2
28/06:00pm 26.9 21.7 7.4 29 10.5 SSW 24 32 13 17 1016.9 1016.3 0.2
28/05:30pm 27.8 23.4 7.6 28 10.9 SSW 20 28 11 15 1016.6 1016.0 0.2
28/05:00pm 28.1 24.9 8.4 29 10.8 S 15 20 8 11 1016.6 1016.0 0.2
28/04:30pm 28.1 24.5 8.4 29 10.8 SSW 17 26 9 14 1016.3 1015.7 0.2
28/04:00pm 27.9 24.8 8.7 30 10.6 S 15 24 8 13 1016.3 1015.7 0.2
28/03:30pm 28.4 24.9 8.7 29 10.9 SSW 17 26 9 14 1016.6 1016.0 0.2
28/03:00pm 27.9 24.8 8.7 30 10.6 SSW 15 26 8 14 1016.8 1016.2 0.2
28/02:30pm 28.1 24.6 8.9 30 10.6 SSE 17 24 9 13 1017.1 1016.5 0.2
28/02:00pm 28.0 24.1 9.3 31 10.4 S 20 30 11 16 1017.6 1017.0 0.2
28/01:30pm 27.5 24.4 8.9 31 10.3 SE 15 26 8 14 1018.2 1017.7 0.2
28/01:00pm 26.6 23.8 9.9 35 9.3 SSE 15 32 8 17 1018.8 1018.3 0.2
28/12:30pm 26.1 22.9 9.9 36 9.0 ESE 17 26 9 14 1019.7 1019.1 0.2
28/12:00pm 25.5 21.8 9.3 36 8.9 ESE 19 33 10 18 1020.1 1019.5 0.2
28/11:30am 25.4 21.2 9.7 37 8.7 ESE 22 30 12 16 1020.5 1019.9 0.2
28/11:00am 24.2 20.0 9.8 40 7.9 SE 22 35 12 19 1021.3 1020.7 0.2
28/10:30am 23.0 19.2 9.8 43 7.2 SE 20 30 11 16 1021.8 1021.2 0.0
28/10:00am 22.4 17.7 9.2 43 7.1 SE 24 33 13 18 1021.9 1021.3 0.0
28/09:30am 21.6 16.7 9.8 47 6.4 SE 26 35 14 19 1021.7 1021.1 0.0
28/09:00am 20.5 15.9 10.9 54 5.3 SE 26 35 14 19 1021.7 1021.1 0.4
28/08:30am 19.4 15.3 11.4 60 4.4 SE 24 32 13 17 1021.7 1021.1 0.4
28/08:00am 18.3 14.9 11.1 63 3.9 SSE 20 26 11 14 1021.3 1020.7 0.4
28/07:30am 17.5 14.6 10.9 65 3.6 SE 17 22 9 12 1020.9 1020.3 0.4
28/07:00am 16.0 14.6 11.0 72 2.7 S 9 15 5 8 1020.6 1020.0 0.4
28/06:30am 15.5 14.2 11.3 76 2.3 SSE 9 13 5 7 1020.4 1019.8 0.4
28/06:00am 15.2 14.0 11.6 79 2.0 SSE 9 11 5 6 1020.0 1019.4 0.4
28/05:30am 15.0 13.4 11.4 79 1.9 S 11 13 6 7 1020.1 1019.5 0.4
28/05:00am 14.9 12.8 11.3 79 1.9 S 13 15 7 8 1019.9 1019.3 0.4
28/04:30am 15.1 13.5 11.5 79 2.0 S 11 13 6 7 1019.7 1019.1 0.4
28/04:00am 15.3 13.7 11.7 79 2.0 S 11 13 6 7 1019.7 1019.1 0.4
28/03:30am 15.3 13.6 11.3 77 2.2 S 11 15 6 8 1019.8 1019.2 0.4
28/03:00am 15.3 13.7 11.5 78 2.1 S 11 13 6 7 1019.7 1019.1 0.4
28/02:30am 16.2 14.7 12.0 76 2.3 S 11 13 6 7 1019.9 1019.3 0.4
28/02:00am 16.0 14.9 11.8 76 2.3 S 9 11 5 6 1020.2 1019.6 0.4
28/01:30am 16.0 14.4 11.6 75 2.4 S 11 13 6 7 1020.4 1019.8 0.4
28/01:00am 16.6 15.5 11.9 74 2.6 S 9 11 5 6 1020.5 1019.9 0.4
28/12:30am 17.0 15.5 11.9 72 2.8 S 11 13 6 7 1020.5 1019.9 0.4
28/12:00am 17.5 16.2 12.6 73 2.7 S 11 11 6 6 1020.4 1019.8 0.4
 
Date/Time
EST
Temp
°C
App
Temp
°C
Dew
Point
Rel
Hum
%
Delta-T
°C
Wind Press
QNH
hPa
Press
MSL
hPa
Rain
since 9 am
mm
Dir
 
Spd
km/h
Gust
km/h
Spd
kts
Gust
kts
27/11:30pm 17.6 16.3 12.5 72 2.9 S 11 11 6 6 1020.4 1019.8 0.4
27/11:00pm 18.5 16.9 12.9 70 3.2 SSE 13 15 7 8 1020.5 1019.9 0.4
27/10:30pm 18.8 17.4 12.3 66 3.6 SSE 11 15 6 8 1020.4 1019.8 0.4
27/10:00pm 19.4 18.2 12.7 65 3.8 SSE 11 13 6 7 1020.4 1019.8 0.4
27/09:30pm 20.7 18.8 12.9 61 4.5 SSE 15 17 8 9 1020.4 1019.8 0.4
27/09:00pm 21.3 19.1 13.2 60 4.7 SE 17 20 9 11 1020.3 1019.7 0.4
27/08:30pm 21.6 19.5 13.5 60 4.7 SE 17 22 9 12 1020.1 1019.5 0.4
27/08:00pm 21.7 20.0 13.6 60 4.7 SE 15 17 8 9 1019.7 1019.1 0.4
27/07:30pm 22.3 20.2 13.6 58 5.1 SE 17 20 9 11 1019.4 1018.8 0.4
27/07:00pm 22.7 20.6 13.5 56 5.4 SE 17 20 9 11 1018.7 1018.2 0.4
27/06:30pm 23.3 21.1 13.2 53 5.9 SE 17 20 9 11 1018.3 1017.8 0.4
27/06:00pm 24.1 21.8 13.0 50 6.5 SE 17 20 9 11 1017.9 1017.4 0.4
27/05:30pm 24.1 21.9 13.3 51 6.3 SSE 17 22 9 12 1018.0 1017.5 0.4
27/05:00pm 23.6 21.5 13.5 53 5.9 SSE 17 24 9 13 1018.0 1017.5 0.4
27/04:30pm 23.7 21.2 13.6 53 5.9 SSE 19 26 10 14 1017.8 1017.2 0.4
27/04:00pm 23.2 20.0 13.1 53 5.9 SSE 22 28 12 15 1017.7 1017.1 0.4
27/03:30pm 23.0 19.8 13.2 54 5.7 SSE 22 28 12 15 1017.8 1017.2 0.4
27/03:00pm 23.4 20.4 13.6 54 5.7 SSE 22 28 12 15 1018.0 1017.5 0.4
27/02:30pm 22.4 19.9 13.5 57 5.2 SSE 19 24 10 13 1018.7 1018.2 0.4
27/02:00pm 22.1 18.7 13.7 59 4.9 SSE 24 32 13 17 1019.0 1018.5 0.4
27/01:30pm 22.3 19.8 14.2 60 4.8 SSE 20 26 11 14 1019.7 1019.1 0.4
27/01:00pm 21.8 19.5 14.7 64 4.2 SE 20 26 11 14 1019.8 1019.2 0.4
27/12:30pm 20.8 18.8 14.9 69 3.5 SSE 19 24 10 13 1020.7 1020.1 0.4
27/12:00pm 20.0 17.6 14.4 70 3.3 SSE 20 24 11 13 1021.3 1020.7 0.4
27/11:30am 19.7 17.8 15.1 75 2.7 SSE 19 24 10 13 1021.5 1020.9 0.4
27/11:00am 18.0 16.9 15.4 85 1.5 SSW 15 20 8 11 1022.2 1021.6 0.4
27/10:30am 18.5 17.7 15.0 80 2.1 S 13 19 7 10 1022.7 1022.2 0.0
27/10:00am 18.7 15.5 13.1 70 3.2 S 22 30 12 16 1022.1 1021.5 0.0
27/09:30am 18.6 14.2 13.0 70 3.2 S 28 33 15 18 1021.9 1021.3 0.0
27/09:00am 19.4 15.7 12.7 65 3.8 SSW 24 35 13 19 1021.7 1021.1 0.0
27/08:30am 20.0 16.3 11.5 58 4.7 SSW 22 30 12 16 1021.6 1021.0 0.0
27/08:00am 20.0 16.6 11.2 57 4.9 SSW 20 28 11 15 1020.6 1020.0 0.0
27/07:30am 20.0 16.5 11.0 56 5.0 S 20 28 11 15 1019.7 1019.1 0.0
27/07:00am 20.3 16.9 10.4 53 5.4 S 19 26 10 14 1019.7 1019.1 0.0
27/06:30am 20.6 17.3 9.5 49 6.0 SSW 17 20 9 11 1019.3 1018.7 0.0
27/06:00am 20.7 17.7 9.3 48 6.1 SSW 15 20 8 11 1018.6 1018.1 0.0
27/05:30am 21.3 17.6 9.5 47 6.4 SSE 19 24 10 13 1018.0 1017.5 0.0
27/05:00am 21.0 17.3 9.6 48 6.1 SSE 19 24 10 13 1018.0 1017.5 0.0
27/04:30am 20.9 17.6 9.5 48 6.1 SSE 17 24 9 13 1017.6 1017.0 0.0
27/04:00am 21.3 17.0 9.5 47 6.4 SSE 22 28 12 15 1017.3 1016.7 0.0
27/03:30am 21.6 17.6 9.2 45 6.7 SE 20 26 11 14 1017.2 1016.6 0.0
27/03:00am 21.6 16.9 9.2 45 6.7 SE 24 32 13 17 1017.6 1017.0 0.0
27/02:30am 21.7 17.4 9.3 45 6.7 SSE 22 32 12 17 1018.1 1017.6 0.0
27/02:00am 21.7 16.1 8.9 44 6.8 SSE 28 35 15 19 1018.1 1017.6 0.0
27/01:30am 21.3 18.0 7.9 42 7.0 SSE 15 20 8 11 1018.5 1018.0 0.0
27/01:00am 21.4 17.2 7.3 40 7.3 SSE 19 24 10 13 1018.7 1018.2 0.0
27/12:30am 21.7 17.2 6.8 38 7.7 S 20 26 11 14 1018.5 1018.0 0.0
27/12:00am 21.9 16.8 6.2 36 8.0 S 22 30 12 16 1018.6 1018.1 0.0
 
Date/Time
EST
Temp
°C
App
Temp
°C
Dew
Point
Rel
Hum
%
Delta-T
°C
Wind Press
QNH
hPa
Press
MSL
hPa
Rain
since 9 am
mm
Dir
 
Spd
km/h
Gust
km/h
Spd
kts
Gust
kts
26/11:30pm 22.2 17.0 5.6 34 8.4 S 22 28 12 15 1018.6 1018.1 0.0
26/11:00pm 22.8 17.3 5.7 33 8.7 SSW 24 32 13 17 1018.5 1018.0 0.0
26/10:30pm 23.7 19.0 6.0 32 9.1 S 20 32 11 17 1018.0 1017.5 0.0
26/10:00pm 24.3 18.8 6.1 31 9.4 S 24 35 13 19 1017.8 1017.2 0.0
26/09:30pm 24.8 19.0 6.1 30 9.7 S 26 37 14 20 1017.6 1017.0 0.0
26/09:00pm 25.6 20.2 6.3 29 10.1 S 24 33 13 18 1017.3 1016.7 0.0
26/08:30pm 26.7 18.9 5.1 25 11.1 SSW 35 46 19 25 1016.7 1016.1 0.0
26/08:00pm 28.6 22.4 4.2 21 12.5 S 26 33 14 18 1016.2 1015.6 0.0
26/07:30pm 29.3 24.2 6.0 23 12.4 SW 22 35 12 19 1015.8 1015.2 0.0
26/07:00pm 29.5 29.0 8.0 26 11.8 CALM 0 0 0 0 1015.2 1014.6 0.0
26/06:30pm 30.4 29.5 7.6 24 12.5 NNW 2 6 1 3 1014.8 1014.2 0.0
26/06:00pm 31.5 29.7 7.9 23 13.1 NNW 7 9 4 5 1014.7 1014.1 0.0
26/05:30pm 32.0 30.1 7.6 22 13.5 W 7 11 4 6 1014.4 1013.8 0.0
26/05:00pm 32.6 30.8 8.1 22 13.7 N 7 11 4 6 1014.2 1013.6 0.0
26/04:30pm 32.0 30.1 7.6 22 13.5 WNW 7 13 4 7 1014.1 1013.5 0.0
26/04:00pm 31.9 30.2 7.5 22 13.5 N 6 11 3 6 1014.2 1013.6 0.0
26/03:30pm 32.2 30.2 7.1 21 13.8 N 7 13 4 7 1014.2 1013.6 0.0
26/03:00pm 32.0 29.6 7.0 21 13.7 NE 9 15 5 8 1014.5 1013.9 0.0
26/02:30pm 32.1 29.9 7.7 22 13.5 SSW 9 15 5 8 1014.9 1014.3 0.0
26/02:00pm 31.0 28.6 6.8 22 13.1 ESE 9 15 5 8 1015.5 1014.9 0.0
26/01:30pm 31.0 29.3 7.5 23 12.9 SSW 6 7 3 4 1016.0 1015.4 0.0
26/01:00pm 29.9 27.2 7.2 24 12.3 NNE 11 19 6 10 1016.6 1016.0 0.0
26/12:30pm 29.1 26.0 7.1 25 11.9 ENE 13 20 7 11 1017.2 1016.6 0.0
26/12:00pm 28.4 24.2 5.9 24 11.9 E 17 26 9 14 1017.8 1017.2 0.0
26/11:30am 28.2 23.9 5.1 23 12.0 ESE 17 24 9 13 1018.4 1017.9 0.0
26/11:00am 27.5 22.4 3.9 22 11.9 ESE 20 33 11 18 1019.2 1018.6 0.0
26/10:30am 26.0 20.0 3.3 23 11.3 SE 24 32 13 17 1019.4 1018.8 0.0

Other Formats:

Comma delimited format used in spreadsheet applications
http://www.bom.gov.au/fwo/IDQ60801/IDQ60801.94335.axf

JavaScript Object Notation format (JSON) in row-major order
http://www.bom.gov.au/fwo/IDQ60801/IDQ60801.94335.json